sensor_id;sensor_type;location;lat;lon;timestamp;temperature;humidity
51595;DHT22;37677;53.254;6.594;2022-09-02T00:00:51;15.70;99.90
51595;DHT22;37677;53.254;6.594;2022-09-02T00:03:18;15.70;99.90
51595;DHT22;37677;53.254;6.594;2022-09-02T00:05:44;15.60;99.90
51595;DHT22;37677;53.254;6.594;2022-09-02T00:08:10;15.60;99.90
51595;DHT22;37677;53.254;6.594;2022-09-02T00:10:38;15.80;99.90
51595;DHT22;37677;53.254;6.594;2022-09-02T00:13:07;15.60;99.90
51595;DHT22;37677;53.254;6.594;2022-09-02T00:15:34;15.50;99.90
51595;DHT22;37677;53.254;6.594;2022-09-02T00:18:00;15.40;99.90
51595;DHT22;37677;53.254;6.594;2022-09-02T00:20:28;15.40;99.90
51595;DHT22;37677;53.254;6.594;2022-09-02T00:22:53;15.30;99.90
51595;DHT22;37677;53.254;6.594;2022-09-02T00:25:19;15.40;99.90
51595;DHT22;37677;53.254;6.594;2022-09-02T00:27:45;15.30;99.90
51595;DHT22;37677;53.254;6.594;2022-09-02T00:30:11;15.30;99.90
51595;DHT22;37677;53.254;6.594;2022-09-02T00:32:37;15.30;99.90
51595;DHT22;37677;53.254;6.594;2022-09-02T00:35:03;15.30;99.90
51595;DHT22;37677;53.254;6.594;2022-09-02T00:37:30;15.10;99.90
51595;DHT22;37677;53.254;6.594;2022-09-02T00:39:55;15.20;99.90
51595;DHT22;37677;53.254;6.594;2022-09-02T00:42:23;15.10;99.90
51595;DHT22;37677;53.254;6.594;2022-09-02T00:44:49;15.10;99.90
51595;DHT22;37677;53.254;6.594;2022-09-02T00:47:15;15.80;99.90
51595;DHT22;37677;53.254;6.594;2022-09-02T00:49:45;14.90;99.90
51595;DHT22;37677;53.254;6.594;2022-09-02T00:52:16;14.90;99.90
51595;DHT22;37677;53.254;6.594;2022-09-02T00:54:56;14.90;99.90
51595;DHT22;37677;53.254;6.594;2022-09-02T00:57:25;14.80;1.00
51595;DHT22;37677;53.254;6.594;2022-09-02T01:02:36;14.70;1.00
51595;DHT22;37677;53.254;6.594;2022-09-02T01:05:06;14.60;11.50
51595;DHT22;37677;53.254;6.594;2022-09-02T01:07:34;14.50;99.90
51595;DHT22;37677;53.254;6.594;2022-09-02T01:10:07;14.50;99.90
51595;DHT22;37677;53.254;6.594;2022-09-02T01:12:33;14.50;99.90
51595;DHT22;37677;53.254;6.594;2022-09-02T01:15:00;14.50;99.90
51595;DHT22;37677;53.254;6.594;2022-09-02T01:17:27;14.50;99.90
51595;DHT22;37677;53.254;6.594;2022-09-02T01:20:00;15.40;99.90
51595;DHT22;37677;53.254;6.594;2022-09-02T01:22:30;14.50;99.90
51595;DHT22;37677;53.254;6.594;2022-09-02T01:24:59;14.50;99.90
51595;DHT22;37677;53.254;6.594;2022-09-02T01:27:25;14.50;91.30
51595;DHT22;37677;53.254;6.594;2022-09-02T01:29:54;14.50;60.80
51595;DHT22;37677;53.254;6.594;2022-09-02T01:32:21;14.60;1.00
51595;DHT22;37677;53.254;6.594;2022-09-02T01:34:47;14.60;1.00
51595;DHT22;37677;53.254;6.594;2022-09-02T01:37:13;14.70;1.00
51595;DHT22;37677;53.254;6.594;2022-09-02T01:39:39;14.60;1.00
51595;DHT22;37677;53.254;6.594;2022-09-02T01:42:05;14.60;1.00
51595;DHT22;37677;53.254;6.594;2022-09-02T01:44:34;14.70;1.00
51595;DHT22;37677;53.254;6.594;2022-09-02T01:47:02;14.60;1.00
51595;DHT22;37677;53.254;6.594;2022-09-02T01:49:28;14.60;1.00
51595;DHT22;37677;53.254;6.594;2022-09-02T01:51:54;14.50;1.00
51595;DHT22;37677;53.254;6.594;2022-09-02T01:54:20;14.50;1.00
51595;DHT22;37677;53.254;6.594;2022-09-02T01:56:46;14.40;1.00
51595;DHT22;37677;53.254;6.594;2022-09-02T01:59:12;14.40;1.00
51595;DHT22;37677;53.254;6.594;2022-09-02T02:01:43;14.30;1.00
51595;DHT22;37677;53.254;6.594;2022-09-02T02:04:09;14.30;1.00
51595;DHT22;37677;53.254;6.594;2022-09-02T02:06:42;14.30;1.00
51595;DHT22;37677;53.254;6.594;2022-09-02T02:09:09;14.30;1.00
51595;DHT22;37677;53.254;6.594;2022-09-02T02:11:35;14.50;1.00
51595;DHT22;37677;53.254;6.594;2022-09-02T02:14:01;14.40;1.00
51595;DHT22;37677;53.254;6.594;2022-09-02T02:16:27;14.30;1.00
51595;DHT22;37677;53.254;6.594;2022-09-02T02:18:53;14.50;1.00
51595;DHT22;37677;53.254;6.594;2022-09-02T02:21:19;14.20;1.00
51595;DHT22;37677;53.254;6.594;2022-09-02T02:23:45;14.20;1.00
51595;DHT22;37677;53.254;6.594;2022-09-02T02:26:11;14.40;1.00
51595;DHT22;37677;53.254;6.594;2022-09-02T02:28:37;14.20;1.00
51595;DHT22;37677;53.254;6.594;2022-09-02T02:31:04;14.30;27.60
51595;DHT22;37677;53.254;6.594;2022-09-02T02:33:30;14.10;39.60
51595;DHT22;37677;53.254;6.594;2022-09-02T02:35:55;14.10;75.10
51595;DHT22;37677;53.254;6.594;2022-09-02T02:38:22;14.00;99.90
51595;DHT22;37677;53.254;6.594;2022-09-02T02:40:47;14.00;99.90
51595;DHT22;37677;53.254;6.594;2022-09-02T02:43:13;13.90;99.90
51595;DHT22;37677;53.254;6.594;2022-09-02T02:45:39;13.90;99.90
51595;DHT22;37677;53.254;6.594;2022-09-02T02:48:05;13.90;99.90
51595;DHT22;37677;53.254;6.594;2022-09-02T02:50:31;13.80;1.00
51595;DHT22;37677;53.254;6.594;2022-09-02T02:52:56;13.80;1.00
51595;DHT22;37677;53.254;6.594;2022-09-02T02:55:23;14.00;1.00
51595;DHT22;37677;53.254;6.594;2022-09-02T02:57:50;13.80;1.00
51595;DHT22;37677;53.254;6.594;2022-09-02T03:00:20;13.80;1.00
51595;DHT22;37677;53.254;6.594;2022-09-02T03:02:46;13.80;1.00
51595;DHT22;37677;53.254;6.594;2022-09-02T03:05:12;13.80;1.00
51595;DHT22;37677;53.254;6.594;2022-09-02T03:07:39;13.70;48.70
51595;DHT22;37677;53.254;6.594;2022-09-02T03:10:06;13.80;1.00
51595;DHT22;37677;53.254;6.594;2022-09-02T03:12:33;13.80;1.00
51595;DHT22;37677;53.254;6.594;2022-09-02T03:14:59;13.80;1.00
51595;DHT22;37677;53.254;6.594;2022-09-02T03:17:26;13.80;1.00
51595;DHT22;37677;53.254;6.594;2022-09-02T03:19:52;13.80;1.00
51595;DHT22;37677;53.254;6.594;2022-09-02T03:22:18;13.70;98.90
51595;DHT22;37677;53.254;6.594;2022-09-02T03:24:44;13.70;79.50
51595;DHT22;37677;53.254;6.594;2022-09-02T03:27:10;13.60;69.40
51595;DHT22;37677;53.254;6.594;2022-09-02T03:29:36;14.00;21.20
51595;DHT22;37677;53.254;6.594;2022-09-02T03:32:02;13.70;1.90
51595;DHT22;37677;53.254;6.594;2022-09-02T03:34:28;13.70;41.50
51595;DHT22;37677;53.254;6.594;2022-09-02T03:36:55;13.70;67.20
51595;DHT22;37677;53.254;6.594;2022-09-02T03:39:20;13.70;73.80
51595;DHT22;37677;53.254;6.594;2022-09-02T03:41:46;13.60;99.90
51595;DHT22;37677;53.254;6.594;2022-09-02T03:44:14;13.70;99.90
51595;DHT22;37677;53.254;6.594;2022-09-02T03:46:39;13.60;99.90
51595;DHT22;37677;53.254;6.594;2022-09-02T03:49:06;13.60;99.90
51595;DHT22;37677;53.254;6.594;2022-09-02T03:51:33;13.50;99.90
51595;DHT22;37677;53.254;6.594;2022-09-02T03:53:58;13.50;1.00
51595;DHT22;37677;53.254;6.594;2022-09-02T03:56:24;13.40;1.00
51595;DHT22;37677;53.254;6.594;2022-09-02T03:58:51;13.50;1.00
51595;DHT22;37677;53.254;6.594;2022-09-02T04:01:21;13.50;1.00
51595;DHT22;37677;53.254;6.594;2022-09-02T04:03:47;13.50;1.00
51595;DHT22;37677;53.254;6.594;2022-09-02T04:06:14;13.50;1.00
51595;DHT22;37677;53.254;6.594;2022-09-02T04:08:41;13.40;1.00
51595;DHT22;37677;53.254;6.594;2022-09-02T04:11:12;13.40;52.90
51595;DHT22;37677;53.254;6.594;2022-09-02T04:13:39;13.40;89.70
51595;DHT22;37677;53.254;6.594;2022-09-02T04:16:10;14.00;73.50
51595;DHT22;37677;53.254;6.594;2022-09-02T04:18:37;12.60;40.70
51595;DHT22;37677;53.254;6.594;2022-09-02T04:21:03;13.40;1.00
51595;DHT22;37677;53.254;6.594;2022-09-02T04:23:29;13.40;21.80
51595;DHT22;37677;53.254;6.594;2022-09-02T04:25:55;13.40;1.00
51595;DHT22;37677;53.254;6.594;2022-09-02T04:28:21;13.40;1.00
51595;DHT22;37677;53.254;6.594;2022-09-02T04:30:47;13.70;76.00
51595;DHT22;37677;53.254;6.594;2022-09-02T04:33:12;13.30;66.80
51595;DHT22;37677;53.254;6.594;2022-09-02T04:35:40;13.50;99.90
51595;DHT22;37677;53.254;6.594;2022-09-02T04:38:06;14.40;99.90
51595;DHT22;37677;53.254;6.594;2022-09-02T04:40:32;13.10;99.90
51595;DHT22;37677;53.254;6.594;2022-09-02T04:42:58;14.10;1.00
51595;DHT22;37677;53.254;6.594;2022-09-02T04:45:25;13.00;99.90
51595;DHT22;37677;53.254;6.594;2022-09-02T04:47:51;12.90;1.00
51595;DHT22;37677;53.254;6.594;2022-09-02T04:50:16;12.80;1.00
51595;DHT22;37677;53.254;6.594;2022-09-02T04:52:42;12.80;99.90
51595;DHT22;37677;53.254;6.594;2022-09-02T04:55:09;12.80;99.90
51595;DHT22;37677;53.254;6.594;2022-09-02T04:57:34;12.80;99.90
51595;DHT22;37677;53.254;6.594;2022-09-02T05:00:03;12.90;99.90
51595;DHT22;37677;53.254;6.594;2022-09-02T05:02:29;12.80;99.90
51595;DHT22;37677;53.254;6.594;2022-09-02T05:04:55;12.80;1.00
51595;DHT22;37677;53.254;6.594;2022-09-02T05:07:21;12.90;1.00
51595;DHT22;37677;53.254;6.594;2022-09-02T05:09:46;13.40;1.00
51595;DHT22;37677;53.254;6.594;2022-09-02T05:12:12;12.90;1.00
51595;DHT22;37677;53.254;6.594;2022-09-02T05:14:38;13.70;1.00
51595;DHT22;37677;53.254;6.594;2022-09-02T05:17:04;13.00;1.00
51595;DHT22;37677;53.254;6.594;2022-09-02T05:19:29;12.90;12.00
51595;DHT22;37677;53.254;6.594;2022-09-02T05:21:55;12.90;1.00
51595;DHT22;37677;53.254;6.594;2022-09-02T05:24:24;12.90;1.00
51595;DHT22;37677;53.254;6.594;2022-09-02T05:26:50;13.50;11.60
51595;DHT22;37677;53.254;6.594;2022-09-02T05:29:16;13.10;9.70
51595;DHT22;37677;53.254;6.594;2022-09-02T05:31:45;13.10;1.00
51595;DHT22;37677;53.254;6.594;2022-09-02T05:34:12;13.20;1.00
51595;DHT22;37677;53.254;6.594;2022-09-02T05:36:38;13.50;99.90
51595;DHT22;37677;53.254;6.594;2022-09-02T05:39:04;13.20;99.90
51595;DHT22;37677;53.254;6.594;2022-09-02T05:41:30;13.30;99.90
51595;DHT22;37677;53.254;6.594;2022-09-02T05:43:59;13.40;99.90
51595;DHT22;37677;53.254;6.594;2022-09-02T05:46:26;13.40;1.00
51595;DHT22;37677;53.254;6.594;2022-09-02T05:48:53;13.40;1.00
51595;DHT22;37677;53.254;6.594;2022-09-02T05:51:53;13.40;1.00
51595;DHT22;37677;53.254;6.594;2022-09-02T05:54:22;13.50;1.00
51595;DHT22;37677;53.254;6.594;2022-09-02T05:56:53;13.50;1.00
51595;DHT22;37677;53.254;6.594;2022-09-02T05:59:23;13.50;19.80
51595;DHT22;37677;53.254;6.594;2022-09-02T06:01:50;13.50;99.90
51595;DHT22;37677;53.254;6.594;2022-09-02T06:04:16;13.60;79.80
51595;DHT22;37677;53.254;6.594;2022-09-02T06:06:42;13.70;1.00
51595;DHT22;37677;53.254;6.594;2022-09-02T06:09:11;13.70;1.00
51595;DHT22;37677;53.254;6.594;2022-09-02T06:11:39;13.80;99.90
51595;DHT22;37677;53.254;6.594;2022-09-02T06:14:09;14.00;99.90
51595;DHT22;37677;53.254;6.594;2022-09-02T06:16:36;14.10;35.30
51595;DHT22;37677;53.254;6.594;2022-09-02T06:19:02;14.10;1.00
51595;DHT22;37677;53.254;6.594;2022-09-02T06:21:31;14.20;1.00
51595;DHT22;37677;53.254;6.594;2022-09-02T06:23:57;14.40;99.90
51595;DHT22;37677;53.254;6.594;2022-09-02T06:26:23;14.50;1.00
51595;DHT22;37677;53.254;6.594;2022-09-02T06:28:49;14.70;1.00
51595;DHT22;37677;53.254;6.594;2022-09-02T06:31:18;14.80;99.90
51595;DHT22;37677;53.254;6.594;2022-09-02T06:33:45;14.90;93.80
51595;DHT22;37677;53.254;6.594;2022-09-02T06:36:14;15.00;1.00
51595;DHT22;37677;53.254;6.594;2022-09-02T06:38:42;15.20;1.00
51595;DHT22;37677;53.254;6.594;2022-09-02T06:41:19;15.30;99.90
51595;DHT22;37677;53.254;6.594;2022-09-02T06:43:48;15.60;99.90
51595;DHT22;37677;53.254;6.594;2022-09-02T06:46:20;15.40;99.90
51595;DHT22;37677;53.254;6.594;2022-09-02T06:48:46;15.50;99.90
51595;DHT22;37677;53.254;6.594;2022-09-02T06:51:19;15.60;99.90
51595;DHT22;37677;53.254;6.594;2022-09-02T06:53:45;15.70;99.90
51595;DHT22;37677;53.254;6.594;2022-09-02T06:56:11;15.80;99.90
51595;DHT22;37677;53.254;6.594;2022-09-02T06:58:37;15.80;94.80
51595;DHT22;37677;53.254;6.594;2022-09-02T07:01:04;15.90;69.10
51595;DHT22;37677;53.254;6.594;2022-09-02T07:03:29;16.00;31.40
51595;DHT22;37677;53.254;6.594;2022-09-02T07:06:13;16.50;1.00
51595;DHT22;37677;53.254;6.594;2022-09-02T07:08:41;16.30;1.00
51595;DHT22;37677;53.254;6.594;2022-09-02T07:11:15;16.10;1.00
51595;DHT22;37677;53.254;6.594;2022-09-02T07:13:42;16.20;1.00
51595;DHT22;37677;53.254;6.594;2022-09-02T07:16:07;16.30;1.00
51595;DHT22;37677;53.254;6.594;2022-09-02T07:18:34;16.50;1.00
51595;DHT22;37677;53.254;6.594;2022-09-02T07:21:00;16.60;1.00
51595;DHT22;37677;53.254;6.594;2022-09-02T07:23:26;16.70;1.00
51595;DHT22;37677;53.254;6.594;2022-09-02T07:25:52;16.90;1.00
51595;DHT22;37677;53.254;6.594;2022-09-02T07:28:19;16.90;1.00
51595;DHT22;37677;53.254;6.594;2022-09-02T07:30:45;17.00;1.00
51595;DHT22;37677;53.254;6.594;2022-09-02T07:33:12;17.00;99.90
51595;DHT22;37677;53.254;6.594;2022-09-02T07:35:42;17.00;99.90
51595;DHT22;37677;53.254;6.594;2022-09-02T07:38:09;17.10;99.90
51595;DHT22;37677;53.254;6.594;2022-09-02T07:40:35;17.20;99.90
51595;DHT22;37677;53.254;6.594;2022-09-02T07:43:06;17.30;99.90
51595;DHT22;37677;53.254;6.594;2022-09-02T07:45:33;17.40;99.90
51595;DHT22;37677;53.254;6.594;2022-09-02T07:47:59;17.50;99.90
51595;DHT22;37677;53.254;6.594;2022-09-02T07:50:26;17.50;99.90
51595;DHT22;37677;53.254;6.594;2022-09-02T07:52:54;17.60;99.90
51595;DHT22;37677;53.254;6.594;2022-09-02T07:55:21;17.60;99.90
51595;DHT22;37677;53.254;6.594;2022-09-02T07:57:47;17.70;99.90
51595;DHT22;37677;53.254;6.594;2022-09-02T08:00:14;17.90;99.90
51595;DHT22;37677;53.254;6.594;2022-09-02T08:02:41;17.90;99.90
51595;DHT22;37677;53.254;6.594;2022-09-02T08:05:09;18.10;99.90
51595;DHT22;37677;53.254;6.594;2022-09-02T08:07:35;18.10;99.90
51595;DHT22;37677;53.254;6.594;2022-09-02T08:10:01;18.20;99.90
51595;DHT22;37677;53.254;6.594;2022-09-02T08:12:27;18.20;99.90
51595;DHT22;37677;53.254;6.594;2022-09-02T08:14:53;18.30;99.90
51595;DHT22;37677;53.254;6.594;2022-09-02T08:17:20;18.50;99.90
51595;DHT22;37677;53.254;6.594;2022-09-02T08:19:45;18.40;99.90
51595;DHT22;37677;53.254;6.594;2022-09-02T08:22:11;18.50;99.90
51595;DHT22;37677;53.254;6.594;2022-09-02T08:24:37;18.60;92.40
51595;DHT22;37677;53.254;6.594;2022-09-02T08:27:03;18.70;83.70
51595;DHT22;37677;53.254;6.594;2022-09-02T08:29:29;18.80;67.70
51595;DHT22;37677;53.254;6.594;2022-09-02T08:31:56;18.80;55.80
51595;DHT22;37677;53.254;6.594;2022-09-02T08:34:21;18.90;57.10
51595;DHT22;37677;53.254;6.594;2022-09-02T08:36:47;19.10;62.10
51595;DHT22;37677;53.254;6.594;2022-09-02T08:39:13;19.20;58.40
51595;DHT22;37677;53.254;6.594;2022-09-02T08:42:00;19.40;1.00
51595;DHT22;37677;53.254;6.594;2022-09-02T08:44:27;19.40;1.00
51595;DHT22;37677;53.254;6.594;2022-09-02T08:46:57;19.50;1.00
51595;DHT22;37677;53.254;6.594;2022-09-02T08:49:31;19.70;1.00
51595;DHT22;37677;53.254;6.594;2022-09-02T08:52:01;19.70;1.00
51595;DHT22;37677;53.254;6.594;2022-09-02T08:54:49;19.80;1.00
51595;DHT22;37677;53.254;6.594;2022-09-02T08:57:16;19.80;1.00
51595;DHT22;37677;53.254;6.594;2022-09-02T08:59:42;19.90;1.00
51595;DHT22;37677;53.254;6.594;2022-09-02T09:02:14;20.00;1.00
51595;DHT22;37677;53.254;6.594;2022-09-02T09:11:01;20.30;1.00
51595;DHT22;37677;53.254;6.594;2022-09-02T09:16:24;20.50;1.00
51595;DHT22;37677;53.254;6.594;2022-09-02T09:21:36;20.80;1.00
51595;DHT22;37677;53.254;6.594;2022-09-02T09:24:11;20.90;1.00
51595;DHT22;37677;53.254;6.594;2022-09-02T09:26:39;21.10;1.00
51595;DHT22;37677;53.254;6.594;2022-09-02T09:29:05;21.30;1.00
51595;DHT22;37677;53.254;6.594;2022-09-02T09:31:32;21.50;99.90
51595;DHT22;37677;53.254;6.594;2022-09-02T09:34:05;21.50;99.90
51595;DHT22;37677;53.254;6.594;2022-09-02T09:39:29;21.80;99.90
51595;DHT22;37677;53.254;6.594;2022-09-02T09:44:47;22.00;99.90
51595;DHT22;37677;53.254;6.594;2022-09-02T09:50:29;22.30;99.90
51595;DHT22;37677;53.254;6.594;2022-09-02T09:52:30;21.90;99.90
51595;DHT22;37677;53.254;6.594;2022-09-02T09:57:42;22.70;99.90
51595;DHT22;37677;53.254;6.594;2022-09-02T10:02:51;22.90;99.90
51595;DHT22;37677;53.254;6.594;2022-09-02T10:07:57;23.30;99.90
51595;DHT22;37677;53.254;6.594;2022-09-02T10:10:26;24.20;99.90
51595;DHT22;37677;53.254;6.594;2022-09-02T10:12:55;24.20;99.90
51595;DHT22;37677;53.254;6.594;2022-09-02T10:15:38;24.20;99.90
51595;DHT22;37677;53.254;6.594;2022-09-02T10:24:03;23.70;95.00
51595;DHT22;37677;53.254;6.594;2022-09-02T10:26:47;23.70;95.20
51595;DHT22;37677;53.254;6.594;2022-09-02T10:34:36;24.00;90.30
51595;DHT22;37677;53.254;6.594;2022-09-02T10:42:06;24.30;31.00
51595;DHT22;37677;53.254;6.594;2022-09-02T10:47:30;25.10;19.70
51595;DHT22;37677;53.254;6.594;2022-09-02T10:52:49;26.00;1.00
51595;DHT22;37677;53.254;6.594;2022-09-02T11:00:54;26.30;99.90
51595;DHT22;37677;53.254;6.594;2022-09-02T11:05:57;26.50;99.90
51595;DHT22;37677;53.254;6.594;2022-09-02T11:11:21;26.50;1.00
51595;DHT22;37677;53.254;6.594;2022-09-02T11:22:16;27.20;1.00
51595;DHT22;37677;53.254;6.594;2022-09-02T11:24:51;27.30;1.00
51595;DHT22;37677;53.254;6.594;2022-09-02T11:30:42;27.30;1.00
51595;DHT22;37677;53.254;6.594;2022-09-02T11:33:16;27.10;1.00
51595;DHT22;37677;53.254;6.594;2022-09-02T11:35:43;26.60;1.00
51595;DHT22;37677;53.254;6.594;2022-09-02T11:43:34;24.90;1.00
51595;DHT22;37677;53.254;6.594;2022-09-02T11:51:34;24.30;1.00
51595;DHT22;37677;53.254;6.594;2022-09-02T11:54:06;24.30;1.00
51595;DHT22;37677;53.254;6.594;2022-09-02T11:56:42;24.20;1.00
51595;DHT22;37677;53.254;6.594;2022-09-02T12:02:03;24.20;1.00
51595;DHT22;37677;53.254;6.594;2022-09-02T12:04:30;24.20;1.00
51595;DHT22;37677;53.254;6.594;2022-09-02T12:09:51;24.00;1.00
51595;DHT22;37677;53.254;6.594;2022-09-02T12:23:02;24.00;1.00
51595;DHT22;37677;53.254;6.594;2022-09-02T12:25:32;24.00;1.00
51595;DHT22;37677;53.254;6.594;2022-09-02T12:33:38;24.10;1.00
51595;DHT22;37677;53.254;6.594;2022-09-02T12:36:09;24.10;1.00
51595;DHT22;37677;53.254;6.594;2022-09-02T12:38:54;24.10;1.00
51595;DHT22;37677;53.254;6.594;2022-09-02T12:41:43;24.20;1.00
51595;DHT22;37677;53.254;6.594;2022-09-02T12:44:22;24.20;1.00
51595;DHT22;37677;53.254;6.594;2022-09-02T12:46:56;24.10;1.00
51595;DHT22;37677;53.254;6.594;2022-09-02T12:54:54;24.10;1.00
51595;DHT22;37677;53.254;6.594;2022-09-02T12:57:38;24.10;1.00
51595;DHT22;37677;53.254;6.594;2022-09-02T13:00:05;24.00;1.00
51595;DHT22;37677;53.254;6.594;2022-09-02T13:03:32;24.10;1.00
51595;DHT22;37677;53.254;6.594;2022-09-02T13:28:31;24.10;1.00
51595;DHT22;37677;53.254;6.594;2022-09-02T13:31:08;24.20;1.00
51595;DHT22;37677;53.254;6.594;2022-09-02T13:33:37;24.20;1.00
51595;DHT22;37677;53.254;6.594;2022-09-02T13:36:03;24.30;1.00
51595;DHT22;37677;53.254;6.594;2022-09-02T13:38:29;24.30;1.00
51595;DHT22;37677;53.254;6.594;2022-09-02T13:40:56;24.20;1.00
51595;DHT22;37677;53.254;6.594;2022-09-02T13:43:23;24.20;1.00
51595;DHT22;37677;53.254;6.594;2022-09-02T13:45:52;24.20;1.00
51595;DHT22;37677;53.254;6.594;2022-09-02T13:48:22;24.20;1.00
51595;DHT22;37677;53.254;6.594;2022-09-02T13:50:49;24.20;1.00
51595;DHT22;37677;53.254;6.594;2022-09-02T13:55:53;24.30;1.00
51595;DHT22;37677;53.254;6.594;2022-09-02T14:00:55;24.30;1.00
51595;DHT22;37677;53.254;6.594;2022-09-02T14:03:22;24.30;1.00
51595;DHT22;37677;53.254;6.594;2022-09-02T14:05:52;24.30;1.00
51595;DHT22;37677;53.254;6.594;2022-09-02T14:08:22;24.20;1.00
51595;DHT22;37677;53.254;6.594;2022-09-02T14:10:49;24.20;1.00
51595;DHT22;37677;53.254;6.594;2022-09-02T14:13:16;24.30;1.00
51595;DHT22;37677;53.254;6.594;2022-09-02T14:15:42;24.20;1.00
51595;DHT22;37677;53.254;6.594;2022-09-02T14:20:37;24.20;1.00
51595;DHT22;37677;53.254;6.594;2022-09-02T14:23:03;24.20;1.00
51595;DHT22;37677;53.254;6.594;2022-09-02T14:25:37;24.20;1.00
51595;DHT22;37677;53.254;6.594;2022-09-02T14:28:17;24.20;1.00
51595;DHT22;37677;53.254;6.594;2022-09-02T14:31:03;24.20;1.00
51595;DHT22;37677;53.254;6.594;2022-09-02T14:39:24;24.10;1.00
51595;DHT22;37677;53.254;6.594;2022-09-02T14:41:47;24.10;1.00
51595;DHT22;37677;53.254;6.594;2022-09-02T14:44:25;24.10;1.00
51595;DHT22;37677;53.254;6.594;2022-09-02T14:46:58;24.10;1.00
51595;DHT22;37677;53.254;6.594;2022-09-02T14:49:27;24.00;1.00
51595;DHT22;37677;53.254;6.594;2022-09-02T14:51:59;24.00;1.00
51595;DHT22;37677;53.254;6.594;2022-09-02T14:54:43;24.00;1.00
51595;DHT22;37677;53.254;6.594;2022-09-02T14:57:31;24.00;1.00
51595;DHT22;37677;53.254;6.594;2022-09-02T14:59:59;24.00;1.00
51595;DHT22;37677;53.254;6.594;2022-09-02T15:02:31;24.00;1.00
51595;DHT22;37677;53.254;6.594;2022-09-02T15:04:59;24.00;1.00
51595;DHT22;37677;53.254;6.594;2022-09-02T15:07:26;24.00;1.00
51595;DHT22;37677;53.254;6.594;2022-09-02T15:09:52;24.00;1.00
51595;DHT22;37677;53.254;6.594;2022-09-02T15:12:21;24.00;1.00
51595;DHT22;37677;53.254;6.594;2022-09-02T15:14:51;24.00;1.00
51595;DHT22;37677;53.254;6.594;2022-09-02T15:17:16;24.00;1.00
51595;DHT22;37677;53.254;6.594;2022-09-02T15:19:42;23.90;1.00
51595;DHT22;37677;53.254;6.594;2022-09-02T15:22:08;23.90;1.00
51595;DHT22;37677;53.254;6.594;2022-09-02T15:24:33;23.90;1.00
51595;DHT22;37677;53.254;6.594;2022-09-02T15:26:59;23.90;1.00
51595;DHT22;37677;53.254;6.594;2022-09-02T15:29:25;24.00;1.00
51595;DHT22;37677;53.254;6.594;2022-09-02T15:31:52;23.90;1.00
51595;DHT22;37677;53.254;6.594;2022-09-02T15:34:21;23.90;1.00
51595;DHT22;37677;53.254;6.594;2022-09-02T15:36:47;23.80;1.00
51595;DHT22;37677;53.254;6.594;2022-09-02T15:39:13;23.80;1.00
51595;DHT22;37677;53.254;6.594;2022-09-02T15:41:39;23.80;1.00
51595;DHT22;37677;53.254;6.594;2022-09-02T15:44:07;23.80;1.00
51595;DHT22;37677;53.254;6.594;2022-09-02T15:46:33;23.80;1.00
51595;DHT22;37677;53.254;6.594;2022-09-02T15:49:06;23.80;1.00
51595;DHT22;37677;53.254;6.594;2022-09-02T15:51:32;23.80;1.00
51595;DHT22;37677;53.254;6.594;2022-09-02T15:54:00;23.80;1.00
51595;DHT22;37677;53.254;6.594;2022-09-02T15:56:28;23.70;1.00
51595;DHT22;37677;53.254;6.594;2022-09-02T15:59:01;23.80;1.00
51595;DHT22;37677;53.254;6.594;2022-09-02T16:01:32;23.70;1.00
51595;DHT22;37677;53.254;6.594;2022-09-02T16:03:59;23.80;1.00
51595;DHT22;37677;53.254;6.594;2022-09-02T16:06:28;23.70;1.00
51595;DHT22;37677;53.254;6.594;2022-09-02T16:08:53;23.70;1.00
51595;DHT22;37677;53.254;6.594;2022-09-02T16:11:20;23.70;1.00
51595;DHT22;37677;53.254;6.594;2022-09-02T16:13:46;23.60;1.00
51595;DHT22;37677;53.254;6.594;2022-09-02T16:16:13;23.60;1.00
51595;DHT22;37677;53.254;6.594;2022-09-02T16:18:39;23.60;1.00
51595;DHT22;37677;53.254;6.594;2022-09-02T16:21:07;23.50;1.00
51595;DHT22;37677;53.254;6.594;2022-09-02T16:23:33;23.50;1.00
51595;DHT22;37677;53.254;6.594;2022-09-02T16:28:43;23.40;1.00
51595;DHT22;37677;53.254;6.594;2022-09-02T16:31:11;23.30;1.00
51595;DHT22;37677;53.254;6.594;2022-09-02T16:33:38;23.30;1.00
51595;DHT22;37677;53.254;6.594;2022-09-02T16:36:05;23.20;1.00
51595;DHT22;37677;53.254;6.594;2022-09-02T16:38:31;23.20;1.00
51595;DHT22;37677;53.254;6.594;2022-09-02T16:40:59;23.10;1.00
51595;DHT22;37677;53.254;6.594;2022-09-02T16:43:25;23.10;1.00
51595;DHT22;37677;53.254;6.594;2022-09-02T16:45:52;23.00;1.00
51595;DHT22;37677;53.254;6.594;2022-09-02T16:48:19;23.00;1.00
51595;DHT22;37677;53.254;6.594;2022-09-02T16:50:46;22.90;1.00
51595;DHT22;37677;53.254;6.594;2022-09-02T16:53:12;22.80;1.00
51595;DHT22;37677;53.254;6.594;2022-09-02T16:55:42;22.80;1.00
51595;DHT22;37677;53.254;6.594;2022-09-02T16:58:10;22.70;1.00
51595;DHT22;37677;53.254;6.594;2022-09-02T17:00:40;22.70;1.00
51595;DHT22;37677;53.254;6.594;2022-09-02T17:03:08;22.60;1.00
51595;DHT22;37677;53.254;6.594;2022-09-02T17:05:34;22.60;1.00
51595;DHT22;37677;53.254;6.594;2022-09-02T17:08:00;22.50;1.00
51595;DHT22;37677;53.254;6.594;2022-09-02T17:10:29;22.40;1.00
51595;DHT22;37677;53.254;6.594;2022-09-02T17:12:56;22.30;1.00
51595;DHT22;37677;53.254;6.594;2022-09-02T17:15:23;22.30;1.00
51595;DHT22;37677;53.254;6.594;2022-09-02T17:17:49;22.20;1.00
51595;DHT22;37677;53.254;6.594;2022-09-02T17:20:15;22.10;1.00
51595;DHT22;37677;53.254;6.594;2022-09-02T17:22:41;22.10;1.00
51595;DHT22;37677;53.254;6.594;2022-09-02T17:25:07;22.10;1.00
51595;DHT22;37677;53.254;6.594;2022-09-02T17:27:33;22.00;1.00
51595;DHT22;37677;53.254;6.594;2022-09-02T17:30:01;22.00;1.00
51595;DHT22;37677;53.254;6.594;2022-09-02T17:32:27;21.90;1.00
51595;DHT22;37677;53.254;6.594;2022-09-02T17:34:53;22.00;1.00
51595;DHT22;37677;53.254;6.594;2022-09-02T17:37:19;21.90;1.00
51595;DHT22;37677;53.254;6.594;2022-09-02T17:39:47;21.80;1.00
51595;DHT22;37677;53.254;6.594;2022-09-02T17:42:13;21.70;1.00
51595;DHT22;37677;53.254;6.594;2022-09-02T17:44:39;21.70;1.00
51595;DHT22;37677;53.254;6.594;2022-09-02T17:47:27;21.70;1.00
51595;DHT22;37677;53.254;6.594;2022-09-02T17:49:56;21.60;1.00
51595;DHT22;37677;53.254;6.594;2022-09-02T17:52:22;21.50;1.00
51595;DHT22;37677;53.254;6.594;2022-09-02T17:54:50;21.50;1.00
51595;DHT22;37677;53.254;6.594;2022-09-02T18:00:17;21.40;1.00
51595;DHT22;37677;53.254;6.594;2022-09-02T18:03:39;21.30;1.00
51595;DHT22;37677;53.254;6.594;2022-09-02T18:06:17;21.20;1.00
51595;DHT22;37677;53.254;6.594;2022-09-02T18:08:50;21.20;1.00
51595;DHT22;37677;53.254;6.594;2022-09-02T18:11:20;21.10;1.00
51595;DHT22;37677;53.254;6.594;2022-09-02T18:14:16;21.00;1.00
51595;DHT22;37677;53.254;6.594;2022-09-02T18:19:48;21.00;1.00
51595;DHT22;37677;53.254;6.594;2022-09-02T18:25:10;20.80;1.00
51595;DHT22;37677;53.254;6.594;2022-09-02T18:28:05;20.70;1.00
51595;DHT22;37677;53.254;6.594;2022-09-02T18:30:43;20.70;1.00